createdAt,value
2019-05-17T00:03:33.427Z,9.83
2019-05-17T00:08:38.529Z,9.63
2019-05-17T00:13:43.410Z,10.10
2019-05-17T00:18:48.209Z,10.13
2019-05-17T00:23:52.660Z,10.77
2019-05-17T00:28:57.859Z,11.00
2019-05-17T00:34:02.487Z,10.97
2019-05-17T00:39:07.709Z,10.87
2019-05-17T00:44:12.481Z,10.13
2019-05-17T00:49:17.299Z,10.90
2019-05-17T00:54:22.930Z,11.53
2019-05-17T00:59:27.711Z,11.37
2019-05-17T01:04:32.550Z,10.90
2019-05-17T01:09:37.784Z,11.83
2019-05-17T01:14:42.905Z,11.17
2019-05-17T01:19:48.208Z,10.87
2019-05-17T01:24:52.672Z,10.57
2019-05-17T01:29:57.408Z,10.10
2019-05-17T01:35:02.277Z,9.97
2019-05-17T01:40:08.229Z,10.00
2019-05-17T01:45:16.808Z,10.13
2019-05-17T01:50:21.928Z,10.97
2019-05-17T01:55:26.643Z,10.40
2019-05-17T02:00:32.147Z,10.03
2019-05-17T02:05:37.498Z,11.93
2019-05-17T02:10:42.181Z,13.63
2019-05-17T02:15:47.332Z,13.67
2019-05-17T02:20:52.786Z,13.23
2019-05-17T02:25:57.974Z,12.80
2019-05-17T02:31:03.578Z,13.63
2019-05-17T02:36:08.429Z,12.67
2019-05-17T02:41:14.394Z,13.13
2019-05-17T02:46:19.310Z,14.60
2019-05-17T02:51:24.226Z,14.73
2019-05-17T02:56:28.664Z,14.43
2019-05-17T03:01:33.670Z,20.10
2019-05-17T03:06:38.473Z,18.90
2019-05-17T03:11:43.378Z,22.20
2019-05-17T03:16:48.543Z,21.60
2019-05-17T03:21:53.665Z,20.67
2019-05-17T03:26:58.354Z,21.77
2019-05-17T03:32:08.303Z,20.57
2019-05-17T03:37:15.576Z,18.73
2019-05-17T03:42:16.702Z,18.33
2019-05-17T03:47:22.660Z,18.90
2019-05-17T03:52:27.719Z,17.30
2019-05-17T03:57:32.851Z,17.20
2019-05-17T04:02:37.514Z,18.40
2019-05-17T04:07:43.629Z,20.73
2019-05-17T04:12:48.606Z,21.37
2019-05-17T04:17:55.054Z,22.57
2019-05-17T04:23:03.804Z,14.33
2019-05-17T04:28:08.254Z,13.17
2019-05-17T04:33:13.061Z,13.43
2019-05-17T04:38:17.719Z,21.00
2019-05-17T04:43:23.171Z,17.23
2019-05-17T04:48:28.172Z,18.37
2019-05-17T04:53:33.318Z,17.33
2019-05-17T04:58:37.895Z,17.93
2019-05-17T05:03:43.112Z,17.93
2019-05-17T05:08:52.718Z,18.20
2019-05-17T05:13:56.096Z,18.00
2019-05-17T05:19:02.915Z,16.63
2019-05-17T05:24:07.075Z,17.63
2019-05-17T05:29:12.729Z,13.50
2019-05-17T05:34:17.620Z,14.63
2019-05-17T05:39:22.814Z,13.47
2019-05-17T05:44:27.811Z,14.28
2019-05-17T05:49:32.706Z,14.97
2019-05-17T05:54:37.503Z,11.60
2019-05-17T05:59:42.597Z,10.27
2019-05-17T06:04:47.175Z,10.33
2019-05-17T06:09:51.918Z,10.80
2019-05-17T06:14:56.400Z,9.63
2019-05-17T06:20:02.615Z,9.90
2019-05-17T06:25:07.789Z,10.30
2019-05-17T06:30:13.276Z,9.78
2019-05-17T06:35:18.527Z,10.75
2019-05-17T06:40:23.264Z,10.88
2019-05-17T06:45:28.038Z,10.58
2019-05-17T06:50:32.812Z,10.32
2019-05-17T06:55:37.441Z,10.30
2019-05-17T07:00:41.954Z,8.83
2019-05-17T07:05:50.094Z,8.50
2019-05-17T07:10:54.367Z,8.83
2019-05-17T07:15:59.668Z,7.92
2019-05-17T07:21:05.567Z,7.87
2019-05-17T07:26:12.089Z,7.08
2019-05-17T07:31:16.288Z,8.83
2019-05-17T07:36:21.021Z,8.95
2019-05-17T07:41:25.448Z,8.15
2019-05-17T07:46:29.965Z,8.35
2019-05-17T07:51:35.937Z,7.08
2019-05-17T07:56:41.720Z,8.30
2019-05-17T08:01:46.639Z,7.72
2019-05-17T08:06:51.807Z,7.00
2019-05-17T08:11:56.675Z,7.67
2019-05-17T08:17:01.189Z,5.83
2019-05-17T08:22:06.215Z,4.80
2019-05-17T08:27:10.896Z,5.67
2019-05-17T08:32:15.578Z,6.25
2019-05-17T08:37:20.527Z,5.83
2019-05-17T08:42:25.555Z,6.95
2019-05-17T08:47:30.287Z,7.80
2019-05-17T08:52:35.250Z,6.22
2019-05-17T08:57:40.360Z,6.83
2019-05-17T09:02:44.944Z,6.60
2019-05-17T09:07:49.482Z,7.33
2019-05-17T09:12:55.798Z,7.12
2019-05-17T09:18:00.662Z,5.97
2019-05-17T09:23:05.263Z,5.95
2019-05-17T09:28:10.436Z,5.65
2019-05-17T09:33:14.953Z,5.97
2019-05-17T09:38:20.407Z,5.80
2019-05-17T09:43:25.365Z,5.87
2019-05-17T09:48:30.641Z,5.47
2019-05-17T09:53:35.587Z,5.50
2019-05-17T09:58:40.457Z,4.90
2019-05-17T10:03:45.284Z,5.12
2019-05-17T10:08:50.321Z,5.03
2019-05-17T10:13:58.297Z,4.00
2019-05-17T10:19:01.499Z,3.30
2019-05-17T10:24:06.343Z,2.72
2019-05-17T10:29:11.284Z,2.60
2019-05-17T10:34:15.992Z,2.83
2019-05-17T10:39:20.698Z,2.15
2019-05-17T10:44:38.875Z,2.45
2019-05-17T10:49:32.392Z,2.17
2019-05-17T10:54:40.239Z,2.12
2019-05-17T10:59:44.591Z,2.87
2019-05-17T11:04:50.547Z,2.20
2019-05-17T11:09:55.466Z,2.20
2019-05-17T11:15:10.389Z,1.90
2019-05-17T11:20:06.861Z,2.42
2019-05-17T11:25:11.693Z,2.47
2019-05-17T11:30:16.675Z,2.00
2019-05-17T11:35:24.817Z,1.85
2019-05-17T11:40:32.253Z,1.77
2019-05-17T11:45:36.701Z,2.08
2019-05-17T11:50:41.857Z,1.70
2019-05-17T11:55:47.041Z,1.80
2019-05-17T12:00:51.890Z,1.70
2019-05-17T12:05:56.837Z,1.57
2019-05-17T12:11:02.212Z,1.65
2019-05-17T12:16:08.110Z,1.55
2019-05-17T12:21:12.936Z,1.80
2019-05-17T12:26:17.878Z,2.17
2019-05-17T12:31:22.838Z,1.50
2019-05-17T12:36:27.345Z,2.10
2019-05-17T12:41:31.911Z,2.15
2019-05-17T12:46:36.632Z,1.87
2019-05-17T12:51:41.012Z,1.90
2019-05-17T12:56:45.965Z,1.55
2019-05-17T13:01:50.558Z,1.60
2019-05-17T13:06:55.734Z,1.65
2019-05-17T13:12:00.347Z,1.67
2019-05-17T13:17:05.194Z,1.50
2019-05-17T13:22:09.935Z,1.92
2019-05-17T13:27:15.074Z,1.32
2019-05-17T13:32:19.662Z,1.40
2019-05-17T13:37:24.707Z,1.20
2019-05-17T13:42:29.269Z,1.20
2019-05-17T13:47:34.558Z,1.07
2019-05-17T13:52:39.231Z,0.95
2019-05-17T13:57:44.111Z,1.27
2019-05-17T14:02:49.238Z,1.22
2019-05-17T14:07:54.017Z,1.42
2019-05-17T14:12:59.065Z,1.27
2019-05-17T14:18:03.871Z,1.25
2019-05-17T14:23:08.598Z,1.10
2019-05-17T14:28:13.364Z,1.00
2019-05-17T14:33:17.888Z,1.22
2019-05-17T14:38:22.859Z,1.60
2019-05-17T14:43:31.270Z,1.62
2019-05-17T14:48:34.588Z,1.20
2019-05-17T14:53:39.328Z,1.37
2019-05-17T14:58:43.787Z,1.70
2019-05-17T15:03:48.276Z,2.85
2019-05-17T15:08:53.453Z,2.62
2019-05-17T15:13:58.367Z,2.07
2019-05-17T15:19:02.933Z,2.20
2019-05-17T15:24:07.473Z,2.50
2019-05-17T15:29:11.893Z,2.27
2019-05-17T15:34:16.460Z,2.40
2019-05-17T15:39:21.438Z,3.03
2019-05-17T15:44:27.089Z,2.30
2019-05-17T15:49:32.063Z,2.47
2019-05-17T15:54:37.165Z,2.93
2019-05-17T15:59:42.526Z,2.70
2019-05-17T16:04:47.333Z,2.30
2019-05-17T16:09:55.052Z,2.60
2019-05-17T16:14:59.787Z,7.25
2019-05-17T16:20:04.850Z,5.53
2019-05-17T16:25:09.741Z,2.20
2019-05-17T16:30:15.161Z,1.77
2019-05-17T16:35:20.113Z,1.85
2019-05-17T16:40:25.363Z,1.55
2019-05-17T16:45:29.978Z,1.57
2019-05-17T16:50:34.618Z,1.50
2019-05-17T16:55:39.773Z,1.10
2019-05-17T17:00:45.005Z,1.20
2019-05-17T17:05:50.896Z,1.10
2019-05-17T17:10:55.713Z,1.22
2019-05-17T17:16:03.118Z,2.25
2019-05-17T17:21:08.378Z,2.00
2019-05-17T17:26:13.696Z,1.50
2019-05-17T17:31:18.511Z,2.30
2019-05-17T17:36:22.977Z,2.30
2019-05-17T17:41:28.492Z,2.15
2019-05-17T17:46:32.923Z,2.60
2019-05-17T17:51:37.630Z,2.22
2019-05-17T17:56:42.587Z,3.00
2019-05-17T18:01:47.777Z,2.13
2019-05-17T18:06:52.250Z,2.20
2019-05-17T18:11:57.070Z,1.93
2019-05-17T18:17:01.918Z,2.10
2019-05-17T18:22:11.920Z,2.00
2019-05-17T18:27:17.688Z,2.40
2019-05-17T18:32:22.931Z,2.43
2019-05-17T18:37:28.660Z,2.90
2019-05-17T18:42:34.260Z,3.17
2019-05-17T18:47:39.251Z,3.40
2019-05-17T18:52:44.409Z,3.47
2019-05-17T18:57:50.850Z,3.43
2019-05-17T19:02:55.909Z,3.40
2019-05-17T19:08:01.151Z,3.10
2019-05-17T19:13:05.894Z,4.00
2019-05-17T19:18:12.067Z,4.33
2019-05-17T19:23:20.312Z,3.60
2019-05-17T19:28:25.009Z,4.33
2019-05-17T19:33:29.643Z,4.40
2019-05-17T19:38:34.626Z,3.30
2019-05-17T19:43:43.986Z,3.80
2019-05-17T19:48:49.673Z,3.53
2019-05-17T19:53:54.638Z,4.20
2019-05-17T19:59:00.345Z,5.20
2019-05-17T20:04:05.968Z,5.70
2019-05-17T20:09:11.163Z,5.90
2019-05-17T20:14:16.769Z,6.13
2019-05-17T20:19:21.579Z,6.77
2019-05-17T20:24:26.907Z,5.87
2019-05-17T20:29:31.643Z,5.97
2019-05-17T20:34:36.867Z,5.97
2019-05-17T20:39:42.382Z,6.37
2019-05-17T20:44:47.240Z,5.93
2019-05-17T20:49:51.631Z,6.83
2019-05-17T20:54:56.721Z,6.70
2019-05-17T21:00:01.896Z,6.97
2019-05-17T21:05:06.564Z,6.57
2019-05-17T21:10:13.078Z,7.50
2019-05-17T21:15:17.631Z,7.70
2019-05-17T21:20:22.422Z,6.83
2019-05-17T21:25:26.981Z,6.33
2019-05-17T21:30:31.993Z,7.80
2019-05-17T21:35:37.244Z,7.23
2019-05-17T21:40:42.635Z,6.83
2019-05-17T21:46:01.155Z,6.27
2019-05-17T21:50:53.729Z,6.13
2019-05-17T21:55:58.170Z,6.40
2019-05-17T22:01:16.915Z,5.93
2019-05-17T22:06:21.990Z,6.33
2019-05-17T22:11:26.578Z,6.13
2019-05-17T22:16:31.331Z,6.00
2019-05-17T22:21:36.172Z,7.03
2019-05-17T22:26:41.061Z,6.83
2019-05-17T22:31:46.565Z,7.43
2019-05-17T22:36:51.801Z,8.10
2019-05-17T22:41:56.707Z,8.20
2019-05-17T22:47:02.102Z,8.93
2019-05-17T22:52:06.786Z,9.20
2019-05-17T22:57:11.788Z,10.40
2019-05-17T23:02:16.535Z,10.10
2019-05-17T23:07:21.083Z,9.07
2019-05-17T23:12:25.714Z,8.60
2019-05-17T23:17:30.506Z,9.03
2019-05-17T23:22:34.943Z,9.23
2019-05-17T23:27:42.603Z,11.00
2019-05-17T23:32:47.108Z,11.00
2019-05-17T23:37:52.427Z,8.43
2019-05-17T23:42:57.155Z,7.20
2019-05-17T23:48:01.592Z,7.27
2019-05-17T23:53:06.331Z,7.17
2019-05-17T23:58:11.078Z,7.70
